createdAt,value
2022-11-18T00:05:17.471Z,16.40
2022-11-18T00:15:21.291Z,16.20
2022-11-18T00:25:26.462Z,16.20
2022-11-18T00:35:30.197Z,16.40
2022-11-18T00:45:37.173Z,16.30
2022-11-18T00:55:41.269Z,16.60
2022-11-18T01:05:51.023Z,16.40
2022-11-18T01:15:56.354Z,15.90
2022-11-18T01:26:09.858Z,15.90
2022-11-18T01:36:18.074Z,15.30
2022-11-18T01:46:24.698Z,15.50
2022-11-18T01:56:39.090Z,15.20
2022-11-18T02:06:45.422Z,15.10
2022-11-18T02:17:03.917Z,14.70
2022-11-18T02:27:42.455Z,14.60
2022-11-18T02:37:52.169Z,14.30
2022-11-18T02:47:58.157Z,14.20
2022-11-18T02:58:05.362Z,13.80
2022-11-18T03:08:15.073Z,13.70
2022-11-18T03:18:27.924Z,13.80
2022-11-18T03:28:36.959Z,13.70
2022-11-18T03:38:48.917Z,13.50
2022-11-18T03:48:55.696Z,13.40
2022-11-18T03:59:06.768Z,13.20
2022-11-18T04:09:14.880Z,12.80
2022-11-18T04:19:20.846Z,12.70
2022-11-18T04:29:27.736Z,12.60
2022-11-18T04:39:32.848Z,12.60
2022-11-18T04:49:37.548Z,12.90
2022-11-18T04:59:43.101Z,13.20
2022-11-18T05:09:46.901Z,13.50
2022-11-18T05:19:52.070Z,13.50
2022-11-18T05:29:55.792Z,13.30
2022-11-18T05:40:00.872Z,13.50
2022-11-18T05:50:04.758Z,13.50
2022-11-18T06:00:11.368Z,13.60
2022-11-18T06:10:19.414Z,13.60
2022-11-18T06:20:25.278Z,13.80
2022-11-18T06:30:29.166Z,13.90
2022-11-18T06:40:35.555Z,14.00
2022-11-18T06:50:39.332Z,14.30
2022-11-18T07:00:44.712Z,14.50
2022-11-18T07:10:54.380Z,14.60
2022-11-18T07:21:02.664Z,14.80
2022-11-18T07:31:08.879Z,14.90
2022-11-18T07:41:16.144Z,15.00
2022-11-18T07:51:21.486Z,15.20
2022-11-18T08:01:29.539Z,15.40
2022-11-18T08:11:33.951Z,15.70
2022-11-18T08:21:40.333Z,15.80
2022-11-18T08:31:44.014Z,15.90
2022-11-18T08:41:49.303Z,16.30
2022-11-18T08:51:52.903Z,16.60
2022-11-18T09:01:58.446Z,16.40
2022-11-18T09:12:02.176Z,16.60
2022-11-18T09:22:07.857Z,16.70
2022-11-18T09:32:11.616Z,17.10
2022-11-18T09:42:35.340Z,17.80
2022-11-18T09:52:43.939Z,17.90
2022-11-18T10:02:57.494Z,18.30
2022-11-18T10:13:10.071Z,18.50
2022-11-18T10:23:22.369Z,18.20
2022-11-18T10:33:29.047Z,18.10
2022-11-18T10:43:51.601Z,17.90
2022-11-18T10:54:16.395Z,17.70
2022-11-18T11:04:25.242Z,17.40
2022-11-18T11:14:33.336Z,17.40
2022-11-18T11:24:39.330Z,17.30
2022-11-18T11:34:52.311Z,17.70
2022-11-18T11:45:08.487Z,17.80
2022-11-18T11:55:19.613Z,17.80
2022-11-18T12:05:34.612Z,17.90
2022-11-18T12:15:54.090Z,17.90
2022-11-18T12:26:02.864Z,17.80
2022-11-18T12:36:07.005Z,17.90
2022-11-18T12:47:01.273Z,17.50
2022-11-18T12:57:20.004Z,17.50
2022-11-18T13:07:43.660Z,17.20
2022-11-18T13:17:55.162Z,16.80
2022-11-18T13:28:10.221Z,16.90
2022-11-18T13:38:28.020Z,16.70
2022-11-18T13:48:36.401Z,16.30
2022-11-18T14:09:18.756Z,15.30
2022-11-18T14:19:34.105Z,15.10
2022-11-18T14:29:39.300Z,15.70
2022-11-18T14:39:44.302Z,16.30
2022-11-18T14:49:50.554Z,15.20
2022-11-18T14:59:54.360Z,15.00
2022-11-18T15:10:00.131Z,15.50
2022-11-18T15:20:04.619Z,15.80
2022-11-18T15:30:12.758Z,15.80
2022-11-18T15:40:16.557Z,15.30
2022-11-18T15:50:23.932Z,15.00
2022-11-18T16:00:27.576Z,14.80
2022-11-18T16:11:05.136Z,14.80
2022-11-18T16:21:09.248Z,14.70
2022-11-18T16:31:32.125Z,14.60
2022-11-18T16:41:36.313Z,14.70
2022-11-18T16:51:43.399Z,14.60
2022-11-18T17:01:47.551Z,14.30
2022-11-18T17:11:54.383Z,14.60
2022-11-18T17:21:58.538Z,14.60
2022-11-18T17:32:03.718Z,14.10
2022-11-18T17:42:18.054Z,13.80
2022-11-18T17:52:23.185Z,13.50
2022-11-18T18:02:26.949Z,13.40
2022-11-18T18:12:52.697Z,13.30
2022-11-18T18:22:56.919Z,13.20
2022-11-18T18:33:02.182Z,13.10
2022-11-18T18:43:06.023Z,12.90
2022-11-18T18:53:14.579Z,13.20
2022-11-18T19:03:18.393Z,13.10
2022-11-18T19:13:23.507Z,13.20
2022-11-18T19:23:32.033Z,12.90
2022-11-18T19:33:37.324Z,12.80
2022-11-18T19:43:41.569Z,12.90
2022-11-18T19:53:47.157Z,13.00
2022-11-18T20:03:53.847Z,12.60
2022-11-18T20:13:59.740Z,12.50
2022-11-18T20:24:05.492Z,12.40
2022-11-18T20:34:14.516Z,12.40
2022-11-18T20:44:18.372Z,12.50
2022-11-18T20:54:23.517Z,12.80
2022-11-18T21:04:27.685Z,12.80
2022-11-18T21:14:37.361Z,12.90
2022-11-18T21:24:43.733Z,12.70
2022-11-18T21:35:13.008Z,12.70
2022-11-18T21:45:18.897Z,12.60
2022-11-18T21:55:29.898Z,12.60
2022-11-18T22:05:38.074Z,12.50
2022-11-18T22:16:03.979Z,12.60
2022-11-18T22:26:17.074Z,12.80
2022-11-18T22:36:29.997Z,12.80
2022-11-18T22:46:37.856Z,12.60
2022-11-18T22:56:43.277Z,12.60
2022-11-18T23:06:49.832Z,12.60
2022-11-18T23:16:55.142Z,12.70
2022-11-18T23:27:02.023Z,12.70
2022-11-18T23:37:07.105Z,12.80
2022-11-18T23:47:11.018Z,12.90
2022-11-18T23:57:16.020Z,12.90
